Time;durP1;ratioP1;P1;durP2;ratioP2;P2;SDS_P1;SDS_P2;PMS_P1;PMS_P2;Temp;Humidity;BMP_temperature;BMP_pressure;BME280_temperature;BME280_humidity;BME280_pressure;Samples;Min_cycle;Max_cycle;Signal;HPM_P1;HPM_P2
2021/05/19 00:00:11;;;;;;;2.85;2.65;;;7.80;99.90;;;;;;5081917;28;20062;-83
2021/05/19 00:02:38;;;;;;;7.10;2.80;;;7.80;99.90;;;;;;5090719;28;20051;-85
2021/05/19 00:05:06;;;;;;;2.90;2.70;;;7.90;99.90;;;;;;5081127;28;20416;-84
2021/05/19 00:07:33;;;;;;;3.35;3.05;;;7.90;99.90;;;;;;5079557;28;20101;-84
2021/05/19 00:10:00;;;;;;;4.72;2.90;;;7.80;99.90;;;;;;5079553;28;20083;-83
2021/05/19 00:12:27;;;;;;;2.55;2.45;;;7.80;99.90;;;;;;5080003;28;20048;-84
2021/05/19 00:14:55;;;;;;;4.13;3.45;;;7.80;99.90;;;;;;5080106;28;20048;-83
2021/05/19 00:17:22;;;;;;;3.03;2.80;;;7.80;99.90;;;;;;5076251;28;20044;-83
2021/05/19 00:19:49;;;;;;;6.22;4.10;;;7.80;99.90;;;;;;5077240;28;20090;-84
2021/05/19 00:22:16;;;;;;;3.63;3.33;;;7.90;99.90;;;;;;5077641;28;20044;-84
2021/05/19 00:24:44;;;;;;;3.28;3.08;;;8.10;99.90;;;;;;5078696;28;20417;-84
2021/05/19 00:27:11;;;;;;;3.47;3.20;;;8.20;99.90;;;;;;5077316;28;20417;-84
2021/05/19 00:29:39;;;;;;;4.55;2.80;;;8.20;99.90;;;;;;5077276;28;20045;-84
2021/05/19 00:32:07;;;;;;;2.83;2.60;;;8.10;99.90;;;;;;5076902;28;20101;-84
2021/05/19 00:34:34;;;;;;;2.88;2.67;;;8.10;99.90;;;;;;5060236;28;20044;-84
2021/05/19 00:37:01;;;;;;;3.25;2.42;;;8.10;99.90;;;;;;5077290;28;20086;-84
2021/05/19 00:39:28;;;;;;;2.97;2.78;;;8.00;99.90;;;;;;5078207;28;20079;-85
2021/05/19 00:41:55;;;;;;;3.03;2.53;;;7.90;99.90;;;;;;5076989;28;20118;-84
2021/05/19 00:44:22;;;;;;;3.17;2.72;;;8.00;99.90;;;;;;5078316;28;20076;-85
2021/05/19 00:46:49;;;;;;;2.85;2.65;;;8.00;99.90;;;;;;5079112;28;20045;-84
2021/05/19 00:49:17;;;;;;;2.80;2.65;;;8.00;99.90;;;;;;5078073;28;20044;-84
2021/05/19 00:51:45;;;;;;;4.85;3.40;;;8.10;99.90;;;;;;5077177;28;20056;-85
2021/05/19 00:54:15;;;;;;;2.80;2.60;;;8.10;99.90;;;;;;5077454;28;20045;-84
2021/05/19 00:56:42;;;;;;;2.80;2.60;;;8.10;99.90;;;;;;5079119;28;20143;-84
2021/05/19 00:59:11;;;;;;;4.05;2.67;;;8.10;99.90;;;;;;5062202;28;20129;-85
2021/05/19 01:01:39;;;;;;;2.95;2.70;;;8.10;99.90;;;;;;5078682;28;20402;-85
2021/05/19 01:04:07;;;;;;;2.72;2.63;;;8.10;99.90;;;;;;5078242;28;20060;-85
2021/05/19 01:06:47;;;;;;;3.10;2.90;;;8.10;99.90;;;;;;5079273;28;20082;-85
2021/05/19 01:12:00;;;;;;;2.60;2.40;;;8.00;99.90;;;;;;5080534;28;20114;-84
2021/05/19 01:14:28;;;;;;;2.50;2.40;;;8.00;99.90;;;;;;5066365;28;20424;-85
2021/05/19 01:16:56;;;;;;;2.08;1.95;;;7.90;99.90;;;;;;5077297;28;20056;-85
2021/05/19 01:19:26;;;;;;;4.82;2.72;;;7.80;99.90;;;;;;5077348;28;20079;-85
2021/05/19 01:21:56;;;;;;;2.35;2.25;;;7.80;99.90;;;;;;5077775;28;20113;-84
2021/05/19 01:24:24;;;;;;;4.10;2.90;;;7.80;99.90;;;;;;5061455;28;20048;-84
2021/05/19 01:26:51;;;;;;;2.45;2.35;;;7.80;99.90;;;;;;5064489;28;20048;-86
2021/05/19 01:29:18;;;;;;;2.83;2.63;;;7.90;99.90;;;;;;5079575;28;20115;-85
2021/05/19 01:31:49;;;;;;;2.97;2.78;;;7.80;99.90;;;;;;5077954;28;20045;-84
2021/05/19 01:34:16;;;;;;;2.65;2.53;;;7.80;99.90;;;;;;5077808;28;20562;-85
2021/05/19 01:36:43;;;;;;;3.25;3.00;;;7.90;99.90;;;;;;5079766;28;20044;-85
2021/05/19 01:39:10;;;;;;;3.15;2.95;;;7.80;99.90;;;;;;5081065;28;20064;-85
2021/05/19 01:41:39;;;;;;;2.80;2.60;;;7.80;99.90;;;;;;5080980;28;20071;-85
2021/05/19 01:44:15;;;;;;;3.40;3.20;;;7.80;99.90;;;;;;5077592;28;20044;-85
2021/05/19 01:46:43;;;;;;;3.75;3.45;;;7.80;99.90;;;;;;5077436;28;20083;-85
2021/05/19 01:49:13;;;;;;;3.22;3.03;;;7.90;99.90;;;;;;5081663;28;20048;-86
2021/05/19 01:51:41;;;;;;;3.88;3.47;;;7.80;99.90;;;;;;5082944;28;20079;-85
2021/05/19 01:54:12;;;;;;;6.13;3.33;;;7.80;99.90;;;;;;5073038;28;20102;-85
2021/05/19 01:56:40;;;;;;;3.17;2.90;;;7.80;99.90;;;;;;5073161;28;20049;-85
2021/05/19 01:59:07;;;;;;;3.78;3.30;;;7.70;99.90;;;;;;5073053;28;20051;-85
2021/05/19 02:01:35;;;;;;;2.92;2.63;;;7.70;99.90;;;;;;5073432;28;20068;-84
2021/05/19 02:04:13;;;;;;;3.05;2.85;;;7.50;99.90;;;;;;5075539;28;20075;-85
2021/05/19 02:06:59;;;;;;;2.63;2.50;;;7.40;99.90;;;;;;5056844;28;20044;-86
2021/05/19 02:09:28;;;;;;;2.85;2.75;;;7.30;99.90;;;;;;5073169;28;20046;-84
2021/05/19 02:11:55;;;;;;;3.50;3.30;;;7.30;99.90;;;;;;5075013;28;20072;-85
2021/05/19 02:14:22;;;;;;;3.65;3.45;;;7.30;99.90;;;;;;5073872;28;20104;-85
2021/05/19 02:16:49;;;;;;;4.13;3.72;;;7.40;99.90;;;;;;5074140;28;20072;-84
2021/05/19 02:19:16;;;;;;;4.55;4.07;;;7.50;99.90;;;;;;5073939;28;20086;-85
2021/05/19 02:21:45;;;;;;;6.40;4.00;;;7.50;99.90;;;;;;5074962;28;20052;-85
2021/05/19 02:24:15;;;;;;;6.18;4.03;;;7.50;99.90;;;;;;5058019;28;20420;-85
2021/05/19 02:26:43;;;;;;;5.45;4.18;;;7.50;99.90;;;;;;5075526;28;20051;-85
2021/05/19 02:29:12;;;;;;;4.05;3.75;;;7.50;99.90;;;;;;5077399;28;20052;-85
2021/05/19 02:31:40;;;;;;;4.95;4.30;;;7.40;99.90;;;;;;5074366;28;20101;-85
2021/05/19 02:34:08;;;;;;;4.03;3.60;;;7.40;99.90;;;;;;5073938;28;20045;-85
2021/05/19 02:36:36;;;;;;;5.97;4.28;;;7.40;99.90;;;;;;5074045;28;20098;-84
2021/05/19 02:39:11;;;;;;;4.00;3.60;;;7.30;99.90;;;;;;5074947;28;20055;-83
2021/05/19 02:41:40;;;;;;;;;;;7.30;99.90;;;;;;5060313;28;20059;-85
2021/05/19 02:44:08;;;;;;;6.15;4.07;;;7.30;99.90;;;;;;5074206;28;20442;-85
2021/05/19 02:46:36;;;;;;;4.68;4.18;;;7.40;99.90;;;;;;5075467;28;20082;-85
2021/05/19 02:49:04;;;;;;;4.40;4.10;;;7.40;99.90;;;;;;5074158;28;20048;-85
2021/05/19 02:51:33;;;;;;;5.15;4.18;;;7.30;99.90;;;;;;5074851;28;20067;-85
2021/05/19 02:54:01;;;;;;;5.03;4.00;;;7.30;99.90;;;;;;5058044;28;20066;-85
2021/05/19 02:56:28;;;;;;;6.63;3.78;;;7.30;99.90;;;;;;5075001;28;20064;-85
2021/05/19 02:58:55;;;;;;;4.72;4.32;;;7.20;99.90;;;;;;5074836;28;20048;-85
2021/05/19 03:01:23;;;;;;;4.57;4.07;;;7.30;99.90;;;;;;5058140;28;20052;-84
2021/05/19 03:03:50;;;;;;;4.30;4.00;;;7.20;99.90;;;;;;5076469;28;20493;-84
2021/05/19 03:06:17;;;;;;;3.83;3.53;;;7.20;99.90;;;;;;5060204;28;20082;-85
2021/05/19 03:08:45;;;;;;;3.80;3.50;;;7.10;99.90;;;;;;5059677;28;20070;-85
2021/05/19 03:11:12;;;;;;;7.13;4.25;;;7.10;99.90;;;;;;5076270;28;20072;-85
2021/05/19 03:13:39;;;;;;;8.20;4.68;;;7.00;99.90;;;;;;5076729;28;20048;-85
2021/05/19 03:16:06;;;;;;;4.85;4.45;;;7.00;99.90;;;;;;5077874;28;20048;-86
2021/05/19 03:18:34;;;;;;;7.45;4.82;;;7.00;99.90;;;;;;5079700;28;20049;-84
2021/05/19 03:21:02;;;;;;;5.30;4.07;;;7.00;99.90;;;;;;5079798;28;20049;-84
2021/05/19 03:23:30;;;;;;;7.72;4.30;;;7.00;99.90;;;;;;5080643;28;20059;-84
2021/05/19 03:25:57;;;;;;;6.00;4.78;;;7.00;99.90;;;;;;5079724;28;20138;-85
2021/05/19 03:28:24;;;;;;;7.28;4.50;;;6.90;99.90;;;;;;5080808;28;20041;-85
2021/05/19 03:30:52;;;;;;;7.07;4.40;;;6.90;99.90;;;;;;5079597;28;20105;-85
2021/05/19 03:33:20;;;;;;;7.43;4.30;;;6.90;99.90;;;;;;5079988;28;20075;-85
2021/05/19 03:35:48;;;;;;;6.10;5.45;;;6.90;99.90;;;;;;5079353;28;20127;-85
2021/05/19 03:38:16;;;;;;;5.50;4.90;;;7.00;99.90;;;;;;5087783;28;20057;-86
2021/05/19 03:40:43;;;;;;;5.18;4.68;;;6.90;99.90;;;;;;5079572;28;20049;-84
2021/05/19 03:43:11;;;;;;;5.32;4.90;;;6.90;99.90;;;;;;5076408;28;20052;-84
2021/05/19 03:45:38;;;;;;;5.75;5.25;;;6.90;99.90;;;;;;5059039;28;20105;-85
2021/05/19 03:48:06;;;;;;;9.70;5.25;;;6.90;99.90;;;;;;5076159;28;20493;-85
2021/05/19 03:50:34;;;;;;;6.22;5.60;;;7.00;99.90;;;;;;5076617;28;20045;-85
2021/05/19 03:53:02;;;;;;;6.20;5.45;;;7.00;99.90;;;;;;5076053;28;20056;-84
2021/05/19 03:55:31;;;;;;;6.82;5.90;;;7.10;99.90;;;;;;5076764;28;20067;-85
2021/05/19 03:57:59;;;;;;;7.82;6.20;;;7.10;99.90;;;;;;5060616;28;20127;-84
2021/05/19 04:00:30;;;;;;;7.30;6.50;;;7.20;99.90;;;;;;5076365;28;20397;-85
2021/05/19 04:02:57;;;;;;;10.43;6.28;;;7.20;99.90;;;;;;5076880;28;20056;-84
2021/05/19 04:05:26;;;;;;;6.05;5.20;;;7.30;99.90;;;;;;5077073;28;20052;-85
2021/05/19 04:07:55;;;;;;;8.52;6.13;;;7.30;99.90;;;;;;5077490;28;20094;-85
2021/05/19 04:10:23;;;;;;;8.82;6.57;;;7.30;99.90;;;;;;5077261;28;20106;-85
2021/05/19 04:12:53;;;;;;;8.05;7.05;;;7.30;99.90;;;;;;5076952;28;20443;-85
2021/05/19 04:15:24;;;;;;;8.05;6.45;;;7.40;99.90;;;;;;5077276;28;20053;-85
2021/05/19 04:17:52;;;;;;;10.23;6.57;;;7.50;99.90;;;;;;5080586;28;20078;-85
2021/05/19 04:20:20;;;;;;;7.88;5.82;;;7.50;99.90;;;;;;5081315;28;20052;-85
2021/05/19 04:22:48;;;;;;;6.07;5.57;;;7.50;99.90;;;;;;5081835;28;20044;-85
2021/05/19 04:25:15;;;;;;;6.55;5.95;;;7.40;99.90;;;;;;5084436;28;20127;-86
2021/05/19 04:27:43;;;;;;;6.15;5.60;;;7.40;99.90;;;;;;5084370;28;20097;-84
2021/05/19 04:30:11;;;;;;;6.93;6.22;;;7.50;99.90;;;;;;5082863;28;20044;-85
2021/05/19 04:32:38;;;;;;;7.88;6.40;;;7.60;99.90;;;;;;5086230;28;20067;-85
2021/05/19 04:35:07;;;;;;;6.82;6.13;;;7.60;99.90;;;;;;5083828;28;20566;-85
2021/05/19 04:37:34;;;;;;;9.35;6.75;;;7.70;99.90;;;;;;5082773;28;20198;-85
2021/05/19 04:40:03;;;;;;;9.52;6.57;;;7.70;99.90;;;;;;5084314;28;20487;-85
2021/05/19 04:42:29;;;;;;;8.00;6.13;;;7.70;99.90;;;;;;5086490;28;20076;-85
2021/05/19 04:44:56;;;;;;;6.60;5.90;;;7.70;99.90;;;;;;5081157;28;20068;-85
2021/05/19 04:47:23;;;;;;;6.40;5.68;;;7.60;99.90;;;;;;5085425;28;20051;-85
2021/05/19 04:49:50;;;;;;;6.70;6.10;;;7.60;99.90;;;;;;5081554;28;20105;-85
2021/05/19 04:52:17;;;;;;;7.05;6.18;;;7.70;99.90;;;;;;5082793;28;20048;-85
2021/05/19 04:54:44;;;;;;;7.30;6.05;;;7.80;99.90;;;;;;5081181;28;20048;-85
2021/05/19 04:57:11;;;;;;;6.10;5.57;;;7.80;99.90;;;;;;5081046;28;20048;-86
2021/05/19 04:59:38;;;;;;;6.13;5.57;;;7.80;99.90;;;;;;5081879;28;20070;-85
2021/05/19 05:02:05;;;;;;;7.35;6.60;;;7.90;99.90;;;;;;5081282;28;20503;-85
2021/05/19 05:04:32;;;;;;;8.13;6.72;;;7.90;99.90;;;;;;5083675;28;20416;-85
2021/05/19 05:07:01;;;;;;;10.02;6.18;;;8.00;99.90;;;;;;5081044;28;20505;-85
2021/05/19 05:09:28;;;;;;;7.32;6.63;;;8.10;99.90;;;;;;5082773;28;20044;-86
2021/05/19 05:11:55;;;;;;;6.20;5.70;;;8.30;99.90;;;;;;5082320;28;20040;-83
2021/05/19 05:14:22;;;;;;;6.30;5.60;;;8.50;99.90;;;;;;5083022;28;20051;-85
2021/05/19 05:16:49;;;;;;;5.25;4.68;;;8.60;99.90;;;;;;5076581;28;20055;-85
2021/05/19 05:19:16;;;;;;;8.00;5.18;;;8.60;99.90;;;;;;5079202;28;20475;-85
2021/05/19 05:21:43;;;;;;;6.35;5.18;;;8.70;99.90;;;;;;5078166;28;20048;-83
2021/05/19 05:24:10;;;;;;;5.07;4.57;;;9.40;99.90;;;;;;5080468;28;20048;-85
2021/05/19 05:26:37;;;;;;;4.85;4.35;;;9.80;99.90;;;;;;5087344;28;20056;-85
2021/05/19 05:29:04;;;;;;;5.30;3.72;;;9.80;99.90;;;;;;5081674;28;20496;-85
2021/05/19 05:31:31;;;;;;;3.72;3.42;;;9.90;99.90;;;;;;5073648;28;20136;-85
2021/05/19 05:33:57;;;;;;;8.32;3.53;;;10.20;99.90;;;;;;5073842;28;20045;-85
2021/05/19 05:36:24;;;;;;;4.00;3.70;;;10.50;99.90;;;;;;5074248;28;20063;-84
2021/05/19 05:38:51;;;;;;;3.88;3.55;;;10.50;99.90;;;;;;5073947;28;20063;-85
2021/05/19 05:41:18;;;;;;;9.95;3.90;;;10.30;99.90;;;;;;5074953;28;20044;-85
2021/05/19 05:43:44;;;;;;;5.43;3.53;;;10.00;99.90;;;;;;5076405;28;20094;-85
2021/05/19 05:46:12;;;;;;;13.38;4.88;;;10.00;99.90;;;;;;5077066;28;20413;-85
2021/05/19 05:48:40;;;;;;;4.63;4.22;;;9.70;99.90;;;;;;5074301;28;20493;-86
2021/05/19 05:51:09;;;;;;;5.10;4.60;;;9.60;99.90;;;;;;5076199;28;20063;-86
2021/05/19 05:53:36;;;;;;;4.65;4.25;;;9.60;99.90;;;;;;5076607;28;20044;-86
2021/05/19 05:56:04;;;;;;;5.53;5.10;;;9.70;99.90;;;;;;5075019;28;20512;-86
2021/05/19 05:58:30;;;;;;;9.32;4.80;;;10.10;99.90;;;;;;5075120;28;20053;-86
2021/05/19 06:00:57;;;;;;;5.20;4.80;;;10.50;99.90;;;;;;5074893;28;20051;-85
2021/05/19 06:03:24;;;;;;;4.45;4.05;;;11.00;99.90;;;;;;5074561;28;20052;-86
2021/05/19 06:05:52;;;;;;;10.05;5.05;;;11.50;99.90;;;;;;5076093;28;20045;-85
2021/05/19 06:08:18;;;;;;;6.50;4.63;;;11.60;99.90;;;;;;5074125;28;20504;-85
2021/05/19 06:10:45;;;;;;;17.00;5.50;;;12.00;99.90;;;;;;5074272;28;20048;-85
2021/05/19 06:13:12;;;;;;;10.55;5.22;;;12.00;99.90;;;;;;5075111;28;20052;-83
2021/05/19 06:15:39;;;;;;;13.82;5.15;;;11.60;99.90;;;;;;5078083;28;20101;-85
2021/05/19 06:18:05;;;;;;;13.13;5.00;;;11.40;99.90;;;;;;5077518;28;20052;-86
2021/05/19 06:20:32;;;;;;;5.85;4.75;;;11.30;99.90;;;;;;5077318;28;20048;-85
2021/05/19 06:22:59;;;;;;;6.80;5.13;;;11.20;99.90;;;;;;5096212;28;20051;-85
2021/05/19 06:25:26;;;;;;;7.80;5.32;;;11.00;99.90;;;;;;5077186;28;20080;-85
2021/05/19 06:27:53;;;;;;;6.85;6.13;;;10.90;99.90;;;;;;5077347;28;20055;-85
2021/05/19 06:30:21;;;;;;;10.00;6.20;;;10.90;99.90;;;;;;5077447;28;20084;-85
2021/05/19 06:32:48;;;;;;;7.72;5.82;;;11.00;99.90;;;;;;5077353;28;20051;-85
2021/05/19 06:35:15;;;;;;;11.13;5.78;;;11.00;99.90;;;;;;5077098;28;20059;-86
2021/05/19 06:37:42;;;;;;;8.15;5.93;;;11.10;99.90;;;;;;5077665;28;20098;-85
2021/05/19 06:40:11;;;;;;;7.53;6.03;;;11.20;99.90;;;;;;5076890;28;20055;-86
2021/05/19 06:42:37;;;;;;;10.82;7.30;;;11.10;99.90;;;;;;5077436;28;20048;-85
2021/05/19 06:45:05;;;;;;;9.88;7.20;;;11.10;99.90;;;;;;5076820;28;20528;-86
2021/05/19 06:47:32;;;;;;;10.68;7.40;;;10.90;99.90;;;;;;5076904;28;20082;-85
2021/05/19 06:49:59;;;;;;;9.52;7.03;;;11.00;99.90;;;;;;5093679;28;20071;-85
2021/05/19 06:52:25;;;;;;;11.30;7.50;;;11.10;99.90;;;;;;5076856;28;20051;-85
2021/05/19 06:54:53;;;;;;;14.52;7.32;;;11.20;99.90;;;;;;5094560;28;20127;-85
2021/05/19 06:57:20;;;;;;;9.27;6.53;;;11.20;99.90;;;;;;5076687;28;20044;-84
2021/05/19 06:59:48;;;;;;;10.23;7.75;;;11.60;99.90;;;;;;5076027;28;20105;-86
2021/05/19 07:02:15;;;;;;;19.10;8.13;;;11.90;99.90;;;;;;5076533;28;20587;-85
2021/05/19 07:04:43;;;;;;;18.13;13.02;;;12.40;99.90;;;;;;5075928;28;20140;-85
2021/05/19 07:07:09;;;;;;;9.52;7.68;;;12.90;99.90;;;;;;5075650;28;20056;-85
2021/05/19 07:09:36;;;;;;;10.20;7.30;;;13.60;99.90;;;;;;5075850;28;20131;-85
2021/05/19 07:12:04;;;;;;;7.88;6.85;;;13.90;99.90;;;;;;5076140;28;20048;-85
2021/05/19 07:14:36;;;;;;;7.28;6.57;;;14.20;99.90;;;;;;5077355;28;20056;-86
2021/05/19 07:17:02;;;;;;;15.40;7.07;;;14.30;99.90;;;;;;5084590;28;20104;-86
2021/05/19 07:19:30;;;;;;;10.73;8.00;;;14.30;99.90;;;;;;5083203;28;20050;-85
2021/05/19 07:21:57;;;;;;;7.55;6.80;;;14.10;99.90;;;;;;5076963;28;20109;-85
2021/05/19 07:24:24;;;;;;;9.18;7.90;;;13.80;99.90;;;;;;5076879;28;20052;-85
2021/05/19 07:26:52;;;;;;;10.43;8.60;;;13.90;99.90;;;;;;5076484;28;20048;-85
2021/05/19 07:29:19;;;;;;;8.70;7.90;;;13.60;99.90;;;;;;5076628;28;20071;-85
2021/05/19 07:31:46;;;;;;;9.52;7.85;;;13.60;99.90;;;;;;5076548;28;20098;-85
2021/05/19 07:34:14;;;;;;;9.57;7.18;;;13.70;99.90;;;;;;5076370;28;20051;-85
2021/05/19 07:36:41;;;;;;;7.18;6.57;;;14.10;99.90;;;;;;5076584;28;20075;-85
2021/05/19 07:39:08;;;;;;;9.05;8.23;;;14.20;99.90;;;;;;5076591;28;20044;-85
2021/05/19 07:41:35;;;;;;;8.20;7.40;;;14.00;99.90;;;;;;5075858;28;20051;-85
2021/05/19 07:44:03;;;;;;;7.38;6.35;;;13.80;99.90;;;;;;5076405;28;20055;-84
2021/05/19 07:46:30;;;;;;;6.40;5.80;;;15.50;99.90;;;;;;5077207;28;20520;-84
2021/05/19 07:48:56;;;;;;;7.25;5.78;;;18.00;99.90;;;;;;5078254;28;20039;-85
2021/05/19 07:51:22;;;;;;;6.68;6.07;;;20.00;99.90;;;;;;5095821;28;20059;-84
2021/05/19 07:53:47;;;;;;;6.43;5.82;;;20.70;99.90;;;;;;5076712;28;20040;-84
2021/05/19 07:58:51;;;;;;;6.60;5.97;;;18.90;99.90;;;;;;5094524;28;20061;-84
2021/05/19 08:01:29;;;;;;;8.47;5.70;;;17.70;99.90;;;;;;5077038;28;20407;-83
2021/05/19 08:03:55;;;;;;;6.50;5.90;;;17.00;99.90;;;;;;5081223;28;20069;-85
2021/05/19 08:06:21;;;;;;;7.72;5.63;;;17.10;99.90;;;;;;5098925;28;20043;-84
2021/05/19 08:08:47;;;;;;;7.80;5.78;;;17.10;99.90;;;;;;5079769;28;20036;-84
2021/05/19 08:11:15;;;;;;;6.25;5.18;;;17.30;99.90;;;;;;5097489;28;20075;-85
2021/05/19 08:13:42;;;;;;;6.55;5.55;;;16.70;99.90;;;;;;5097951;28;20238;-83
2021/05/19 08:16:08;;;;;;;5.78;5.28;;;16.30;99.90;;;;;;5079378;28;20036;-83
2021/05/19 08:18:35;;;;;;;5.80;5.25;;;15.80;99.90;;;;;;5079498;28;20036;-84
2021/05/19 08:21:02;;;;;;;5.15;4.65;;;15.50;99.90;;;;;;5098606;28;20048;-84
2021/05/19 08:23:30;;;;;;;8.27;6.75;;;15.50;99.90;;;;;;5079289;28;20139;-83
2021/05/19 08:26:01;;;;;;;6.15;5.53;;;15.30;99.90;;;;;;5097285;28;20055;-83
2021/05/19 08:28:30;;;;;;;10.00;4.53;;;17.50;99.90;;;;;;5097642;28;20048;-82
2021/05/19 08:30:57;;;;;;;4.03;3.72;;;19.90;99.90;;;;;;5097998;28;20072;-82
2021/05/19 08:33:42;;;;;;;4.57;4.28;;;21.20;98.30;;;;;;5098347;28;20407;-83
2021/05/19 08:36:09;;;;;;;5.93;3.00;;;21.30;91.50;;;;;;5080276;28;20135;-82
2021/05/19 08:38:38;;;;;;;3.70;3.35;;;22.30;86.10;;;;;;5099514;28;20075;-82
2021/05/19 08:41:06;;;;;;;8.75;4.57;;;21.90;90.90;;;;;;5079850;28;20052;-82
2021/05/19 08:43:33;;;;;;;6.97;3.60;;;20.90;91.70;;;;;;5097575;28;20071;-83
2021/05/19 08:46:04;;;;;;;3.60;2.95;;;20.70;94.20;;;;;;5079612;28;20048;-81
2021/05/19 08:48:32;;;;;;;2.75;2.65;;;22.30;86.60;;;;;;5097520;28;20519;-82
2021/05/19 08:50:59;;;;;;;3.13;2.90;;;24.00;82.70;;;;;;5079549;28;20047;-80
2021/05/19 08:53:27;;;;;;;2.50;2.28;;;25.50;72.20;;;;;;5099189;28;20079;-81
2021/05/19 08:55:55;;;;;;;3.35;3.10;;;24.00;72.60;;;;;;5097589;28;20087;-82
2021/05/19 08:58:22;;;;;;;3.20;3.00;;;22.20;73.70;;;;;;5096705;28;20079;-82
2021/05/19 09:00:53;;;;;;;4.68;2.92;;;21.00;80.30;;;;;;5097247;28;20094;-82
2021/05/19 09:03:19;;;;;;;3.05;2.78;;;20.10;84.50;;;;;;5096566;28;20082;-82
2021/05/19 09:05:50;;;;;;;3.90;3.00;;;19.00;93.60;;;;;;5098769;28;20561;-83
2021/05/19 09:08:19;;;;;;;7.20;3.45;;;20.40;92.30;;;;;;5082444;28;20078;-80
2021/05/19 09:11:06;;;;;;;3.05;2.80;;;22.40;86.30;;;;;;5099679;28;20074;-81
2021/05/19 09:13:45;;;;;;;3.10;2.80;;;23.30;76.40;;;;;;5100997;28;20052;-81
2021/05/19 09:16:29;;;;;;;3.28;2.88;;;23.30;71.70;;;;;;5083348;28;20048;-80
2021/05/19 09:18:57;;;;;;;2.95;2.75;;;21.60;72.40;;;;;;5081981;28;20069;-83
2021/05/19 09:21:36;;;;;;;2.50;2.30;;;20.30;82.10;;;;;;5084308;28;20105;-82
2021/05/19 09:24:08;;;;;;;2.28;2.13;;;21.00;88.50;;;;;;5100825;28;20207;-82
2021/05/19 09:27:00;;;;;;;2.13;1.92;;;22.40;78.10;;;;;;5099762;28;20048;-80
2021/05/19 09:29:32;;;;;;;1.33;1.23;;;26.00;61.40;;;;;;5080451;28;20044;-80
2021/05/19 09:32:04;;;;;;;1.73;0.90;;;29.40;58.50;;;;;;5098458;28;20048;-80
2021/05/19 09:34:40;;;;;;;1.98;1.88;;;30.00;50.30;;;;;;5079854;28;20519;-79
2021/05/19 09:37:27;;;;;;;6.78;1.80;;;29.70;49.40;;;;;;5098283;28;20087;-80
2021/05/19 09:40:00;;;;;;;12.35;11.25;;;26.30;53.40;;;;;;5097598;28;20048;-80
2021/05/19 09:42:46;;;;;;;13.68;12.30;;;22.70;58.30;;;;;;5078926;28;20083;-82
2021/05/19 09:45:17;;;;;;;1.50;1.50;;;20.50;65.50;;;;;;5098629;28;20052;-80
2021/05/19 09:47:44;;;;;;;13.07;11.70;;;20.40;67.00;;;;;;5098029;28;20446;-82
2021/05/19 09:50:20;;;;;;;6.20;1.50;;;19.60;68.50;;;;;;5079790;28;20072;-80
2021/05/19 09:53:08;;;;;;;8.75;7.90;;;19.50;70.80;;;;;;5096745;28;20094;-80
2021/05/19 09:55:37;;;;;;;3.38;3.17;;;19.90;72.00;;;;;;5078459;28;20048;-79
2021/05/19 09:58:04;;;;;;;7.45;6.80;;;21.40;75.70;;;;;;5096414;28;20044;-79
2021/05/19 10:00:32;;;;;;;8.43;7.55;;;23.70;67.60;;;;;;5096614;28;20079;-78
2021/05/19 10:03:00;;;;;;;2.50;2.30;;;24.50;62.90;;;;;;5096447;28;20052;-79
2021/05/19 10:05:44;;;;;;;3.45;1.58;;;25.10;59.70;;;;;;5097182;28;20135;-80
2021/05/19 10:08:11;;;;;;;;;;;27.00;55.40;;;;;;5078930;28;20048;-81
2021/05/19 10:10:38;;;;;;;13.43;9.52;;;28.60;51.80;;;;;;5096330;28;19963;-79
2021/05/19 10:13:08;;;;;;;8.50;3.72;;;28.60;49.50;;;;;;5078448;28;20098;-81
2021/05/19 10:15:36;;;;;;;3.70;1.80;;;26.80;50.90;;;;;;5078052;28;20076;-80
2021/05/19 10:18:08;;;;;;;0.98;0.93;;;25.70;53.50;;;;;;5078117;28;20056;-79
2021/05/19 10:20:39;;;;;;;1.67;1.35;;;22.80;55.60;;;;;;5077466;28;20459;-81
2021/05/19 10:23:07;;;;;;;3.42;1.17;;;19.80;65.00;;;;;;5093640;28;20052;-81
2021/05/19 10:25:39;;;;;;;0.85;0.85;;;19.80;69.70;;;;;;5075572;28;20565;-79
2021/05/19 10:28:13;;;;;;;1.90;0.77;;;21.80;66.60;;;;;;5076945;28;20059;-79
2021/05/19 10:30:48;;;;;;;1.08;0.90;;;23.40;60.50;;;;;;5095190;28;20040;-79
2021/05/19 10:33:30;;;;;;;2.40;0.90;;;23.70;61.50;;;;;;5095903;28;20491;-79
2021/05/19 10:36:21;;;;;;;0.60;0.60;;;24.50;54.70;;;;;;5095745;28;20117;-79
2021/05/19 10:38:48;;;;;;;2.88;1.00;;;24.60;56.80;;;;;;5077563;28;20488;-81
2021/05/19 10:41:14;;;;;;;0.50;0.50;;;22.70;58.70;;;;;;5094179;28;20054;-81
2021/05/19 10:43:45;;;;;;;1.02;0.90;;;21.70;62.20;;;;;;5095009;28;20102;-81
2021/05/19 10:46:13;;;;;;;5.70;1.40;;;20.80;64.80;;;;;;5093594;28;20048;-81
2021/05/19 10:48:41;;;;;;;10.45;1.60;;;20.00;63.00;;;;;;5075741;28;20080;-81
2021/05/19 10:51:47;;;;;;;0.60;0.60;;;19.60;64.60;;;;;;5093526;28;20056;-81
2021/05/19 10:57:11;;;;;;;21.00;1.58;;;18.80;69.20;;;;;;5098291;28;20050;-82
2021/05/19 11:00:12;;;;;;;5.75;0.45;;;18.80;69.70;;;;;;5080121;28;20075;-82
2021/05/19 11:02:55;;;;;;;1.17;0.73;;;21.50;70.00;;;;;;5098474;28;20098;-80
2021/05/19 11:05:32;;;;;;;2.85;0.65;;;23.70;59.90;;;;;;5098901;28;20094;-82
2021/05/19 11:08:05;;;;;;;2.97;0.60;;;22.20;58.60;;;;;;5098407;28;20044;-82
2021/05/19 11:10:36;;;;;;;0.70;0.70;;;20.50;62.50;;;;;;5098320;28;20084;-81
2021/05/19 11:13:03;;;;;;;1.20;0.63;;;19.30;65.80;;;;;;5079889;28;20070;-81
2021/05/19 11:20:59;;;;;;;6.32;0.80;;;17.20;76.70;;;;;;5096951;28;20084;-80
2021/05/19 11:23:26;;;;;;;0.73;0.73;;;17.00;80.40;;;;;;5078865;28;20056;-81
2021/05/19 11:26:13;;;;;;;1.02;0.57;;;18.30;78.80;;;;;;5078954;28;20084;-83
2021/05/19 11:28:41;;;;;;;1.75;0.40;;;20.00;71.20;;;;;;5096298;28;20104;-80
2021/05/19 11:31:17;;;;;;;3.88;0.60;;;21.80;71.70;;;;;;5080238;28;20080;-81
2021/05/19 11:33:58;;;;;;;1.25;0.60;;;23.70;61.90;;;;;;5098733;28;20406;-83
2021/05/19 11:36:59;;;;;;;2.35;0.60;;;24.30;58.60;;;;;;5098051;28;20058;-80
2021/05/19 11:39:44;;;;;;;0.80;0.50;;;24.50;55.40;;;;;;5095611;28;20131;-81
2021/05/19 11:42:27;;;;;;;1.52;0.43;;;23.60;59.60;;;;;;5083325;28;20496;-81
2021/05/19 11:45:04;;;;;;;2.05;0.47;;;23.20;58.30;;;;;;5081272;28;20052;-81
2021/05/19 11:47:31;;;;;;;0.90;0.50;;;22.80;58.60;;;;;;5082001;28;20048;-79
2021/05/19 11:50:07;;;;;;;0.63;0.45;;;22.30;60.50;;;;;;5099446;28;20044;-79
2021/05/19 11:52:45;;;;;;;0.77;0.50;;;21.40;62.90;;;;;;5081334;28;20147;-78
2021/05/19 11:55:50;;;;;;;3.58;0.52;;;20.40;61.20;;;;;;5097997;28;20048;-80
2021/05/19 11:58:24;;;;;;;1.70;0.55;;;19.80;68.00;;;;;;5097819;28;20076;-81
2021/05/19 12:00:56;;;;;;;0.93;0.50;;;19.60;66.40;;;;;;5097400;28;20101;-80
2021/05/19 12:03:24;;;;;;;0.68;0.43;;;19.40;67.10;;;;;;5078925;28;20483;-80
2021/05/19 12:05:56;;;;;;;2.05;0.50;;;19.20;72.20;;;;;;5079177;28;20055;-79
2021/05/19 12:08:34;;;;;;;1.75;0.47;;;19.40;70.70;;;;;;5079352;28;20048;-80
2021/05/19 12:11:08;;;;;;;0.32;0.30;;;19.60;68.90;;;;;;5097442;28;20048;-80
2021/05/19 12:13:42;;;;;;;0.73;0.40;;;19.70;69.20;;;;;;5079279;28;20143;-81
2021/05/19 12:16:16;;;;;;;2.85;0.30;;;20.20;66.80;;;;;;5096646;28;20150;-81
2021/05/19 12:19:00;;;;;;;0.98;0.70;;;20.60;64.10;;;;;;5096862;28;20393;-80
2021/05/19 12:21:28;;;;;;;1.52;0.40;;;20.30;65.80;;;;;;5078553;28;20048;-80
2021/05/19 12:23:55;;;;;;;1.17;0.50;;;20.40;66.00;;;;;;5097740;28;20130;-79
2021/05/19 12:26:26;;;;;;;0.55;0.45;;;20.80;64.40;;;;;;5098557;28;20409;-80
2021/05/19 12:28:52;;;;;;;0.68;0.50;;;20.90;62.80;;;;;;5097728;28;20052;-79
2021/05/19 12:31:34;;;;;;;0.20;0.20;;;20.30;64.00;;;;;;5097052;28;20084;-79
2021/05/19 12:34:17;;;;;;;1.20;0.57;;;20.00;66.30;;;;;;5097441;28;20048;-79
2021/05/19 12:36:55;;;;;;;2.28;0.40;;;20.50;66.50;;;;;;5079422;28;20071;-80
2021/05/19 12:39:26;;;;;;;1.00;0.70;;;21.00;62.30;;;;;;5079333;28;20090;-80
2021/05/19 12:41:56;;;;;;;1.15;0.60;;;20.90;61.80;;;;;;5097873;28;20465;-79
2021/05/19 12:44:27;;;;;;;0.40;0.40;;;20.70;63.50;;;;;;5079488;28;20082;-79
2021/05/19 12:46:59;;;;;;;6.10;0.80;;;20.20;65.70;;;;;;5080717;28;20048;-80
2021/05/19 12:49:26;;;;;;;0.65;0.60;;;19.90;67.60;;;;;;5098968;28;20465;-79
2021/05/19 12:52:01;;;;;;;3.47;0.68;;;19.10;69.20;;;;;;5100195;28;20047;-80
2021/05/19 12:54:34;;;;;;;0.95;0.40;;;18.90;72.00;;;;;;5082175;28;20075;-80
2021/05/19 12:57:05;;;;;;;1.13;0.67;;;19.00;72.80;;;;;;5099971;28;20094;-79
2021/05/19 12:59:51;;;;;;;0.50;0.50;;;19.10;74.40;;;;;;5099693;28;20161;-79
2021/05/19 13:02:18;;;;;;;0.95;0.35;;;18.70;73.90;;;;;;5080721;28;20134;-80
2021/05/19 13:04:48;;;;;;;4.28;0.60;;;18.40;76.00;;;;;;5099437;28;20159;-79
2021/05/19 13:07:17;;;;;;;1.17;0.50;;;18.60;78.50;;;;;;5081458;28;20052;-80
2021/05/19 13:09:47;;;;;;;3.83;1.00;;;18.80;77.40;;;;;;5080901;28;20127;-80
2021/05/19 13:12:22;;;;;;;0.57;0.57;;;19.00;77.40;;;;;;5080723;28;20082;-79
2021/05/19 13:14:55;;;;;;;1.42;0.47;;;18.90;77.10;;;;;;5098167;28;20056;-79
2021/05/19 13:17:52;;;;;;;0.70;0.68;;;18.90;77.60;;;;;;5098391;28;20048;-79